Time;durP1;ratioP1;P1;durP2;ratioP2;P2;SDS_P1;SDS_P2;PMS_P1;PMS_P2;Temp;Humidity;BMP_temperature;BMP_pressure;BME280_temperature;BME280_humidity;BME280_pressure;Samples;Min_cycle;Max_cycle;Signal;HPM_P1;HPM_P2
2022/02/25 06:18:42;;;;;;;26.63;3.30;;;;;;;;;;5045376;24;20081;-84
2022/02/25 06:21:09;;;;;;;;;;;;;;;;;;4896386;29;20572;-84
2022/02/25 06:23:35;;;;;;;18.00;2.83;;;;;;;;;;4896895;29;19970;-84
2022/02/25 06:26:02;;;;;;;30.38;3.15;;;;;;;;;;4895834;29;20089;-83
2022/02/25 06:28:31;;;;;;;28.92;3.65;;;;;;;;;;4895687;29;20462;-83
2022/02/25 06:30:57;;;;;;;29.35;2.80;;;;;;;;;;4894434;29;20092;-82
2022/02/25 06:33:24;;;;;;;25.65;2.92;;;;;;;;;;4895074;29;20535;-82
2022/02/25 06:35:51;;;;;;;21.55;2.58;;;;;;;;;;4896538;29;20082;-82
2022/02/25 06:38:17;;;;;;;28.13;3.95;;;;;;;;;;4893852;29;20098;-83
2022/02/25 06:40:44;;;;;;;21.83;2.80;;;;;;;;;;4896578;29;20057;-84
2022/02/25 06:43:10;;;;;;;22.45;2.85;;;;;;;;;;4894569;29;21559;-83
2022/02/25 06:45:37;;;;;;;18.75;3.13;;;;;;;;;;4893926;29;20148;-84
2022/02/25 06:48:06;;;;;;;23.45;3.30;;;;;;;;;;4896503;29;20053;-83
2022/02/25 06:50:33;;;;;;;23.73;2.92;;;;;;;;;;4896966;29;20049;-83
2022/02/25 06:52:59;;;;;;;23.58;3.15;;;;;;;;;;4893763;29;20065;-83
2022/02/25 06:55:26;;;;;;;19.42;2.88;;;;;;;;;;4894566;29;20044;-84
2022/02/25 06:58:01;;;;;;;23.35;2.97;;;;;;;;;;4894513;29;20135;-83
2022/02/25 07:00:27;;;;;;;19.95;3.60;;;;;;;;;;4877361;29;20052;-83
2022/02/25 07:02:54;;;;;;;19.58;3.35;;;;;;;;;;4896226;29;20079;-84
2022/02/25 07:05:21;;;;;;;23.77;2.97;;;;;;;;;;4894866;29;20551;-84
2022/02/25 07:07:49;;;;;;;27.27;3.10;;;;;;;;;;4893498;29;20060;-84
2022/02/25 07:10:17;;;;;;;23.58;3.55;;;;;;;;;;4877050;29;20121;-85
2022/02/25 07:12:44;;;;;;;29.90;2.83;;;;;;;;;;4895576;29;20075;-85
2022/02/25 07:15:11;;;;;;;23.08;3.22;;;;;;;;;;4894237;29;20094;-84
2022/02/25 07:17:38;;;;;;;25.02;3.67;;;;;;;;;;4877404;29;20071;-83
2022/02/25 07:20:06;;;;;;;25.15;4.00;;;;;;;;;;4892592;29;20509;-83
2022/02/25 07:22:44;;;;;;;22.75;4.10;;;;;;;;;;4892252;29;20057;-85
2022/02/25 07:25:10;;;;;;;19.70;3.33;;;;;;;;;;4894251;29;20056;-85
2022/02/25 07:27:37;;;;;;;24.77;3.03;;;;;;;;;;4893288;29;20080;-85
2022/02/25 07:30:05;;;;;;;26.60;4.10;;;;;;;;;;4879125;29;20056;-84
2022/02/25 07:32:31;;;;;;;22.33;3.72;;;;;;;;;;4893609;29;20095;-85
2022/02/25 07:34:58;;;;;;;18.75;5.28;;;;;;;;;;4879261;29;20056;-85
2022/02/25 07:37:25;;;;;;;27.23;3.22;;;;;;;;;;4893096;29;20112;-85
2022/02/25 07:39:51;;;;;;;21.02;3.08;;;;;;;;;;4892963;29;20545;-85
2022/02/25 07:42:18;;;;;;;22.35;2.90;;;;;;;;;;4894045;29;20062;-83
2022/02/25 07:44:45;;;;;;;21.95;3.13;;;;;;;;;;4895323;29;20072;-83
2022/02/25 07:47:12;;;;;;;21.38;2.67;;;;;;;;;;4892343;29;20413;-83
2022/02/25 07:49:39;;;;;;;21.17;3.28;;;;;;;;;;4892818;29;20041;-83
2022/02/25 07:52:05;;;;;;;17.30;2.70;;;;;;;;;;4878467;29;20052;-84
2022/02/25 07:54:33;;;;;;;27.58;3.33;;;;;;;;;;4876970;29;20068;-84
2022/02/25 07:56:59;;;;;;;21.02;3.65;;;;;;;;;;4895929;29;20083;-84
2022/02/25 07:59:26;;;;;;;17.77;2.25;;;;;;;;;;4889974;29;20375;-84
2022/02/25 08:01:53;;;;;;;19.02;3.15;;;;;;;;;;4892056;29;20530;-82
2022/02/25 08:04:20;;;;;;;13.93;2.40;;;;;;;;;;4890604;29;20044;-85
2022/02/25 08:06:47;;;;;;;15.10;3.10;;;;;;;;;;4891158;29;20143;-85
2022/02/25 08:09:14;;;;;;;20.63;3.78;;;;;;;;;;4894554;29;20177;-84
2022/02/25 08:11:41;;;;;;;26.55;3.17;;;;;;;;;;4891914;29;20104;-85
2022/02/25 08:14:07;;;;;;;17.33;2.97;;;;;;;;;;4888489;29;20052;-84
2022/02/25 08:16:34;;;;;;;19.02;2.85;;;;;;;;;;4884688;29;20059;-85
2022/02/25 08:19:01;;;;;;;18.83;2.92;;;;;;;;;;4901141;29;20044;-84
2022/02/25 08:21:30;;;;;;;;;;;;;;;;;;4884593;29;20470;-85
2022/02/25 08:23:56;;;;;;;16.25;2.00;;;;;;;;;;4910325;29;19923;-85
2022/02/25 08:26:23;;;;;;;22.95;2.78;;;;;;;;;;4875489;29;20052;-85
2022/02/25 08:28:51;;;;;;;19.05;2.92;;;;;;;;;;4890613;29;20532;-85
2022/02/25 08:31:23;;;;;;;19.92;2.65;;;;;;;;;;4883930;29;20050;-86
2022/02/25 08:33:49;;;;;;;15.85;2.35;;;;;;;;;;4885597;29;20143;-85
2022/02/25 08:36:18;;;;;;;19.13;3.33;;;;;;;;;;4889097;29;20053;-85
2022/02/25 08:38:45;;;;;;;22.20;3.47;;;;;;;;;;4875001;29;20100;-85
2022/02/25 08:41:12;;;;;;;22.42;3.22;;;;;;;;;;4892651;29;20504;-85
2022/02/25 08:43:38;;;;;;;27.42;2.90;;;;;;;;;;4896657;29;20057;-85
2022/02/25 08:46:07;;;;;;;30.95;3.33;;;;;;;;;;4890660;29;20045;-86
2022/02/25 08:48:35;;;;;;;17.77;2.70;;;;;;;;;;4904735;29;20056;-85
2022/02/25 08:51:02;;;;;;;14.63;2.70;;;;;;;;;;4897389;29;20057;-86
2022/02/25 08:53:29;;;;;;;16.08;2.20;;;;;;;;;;4903532;29;20075;-86
2022/02/25 08:55:55;;;;;;;17.73;2.42;;;;;;;;;;4899128;29;20130;-86
2022/02/25 08:58:22;;;;;;;15.00;2.42;;;;;;;;;;4897286;29;20076;-85
2022/02/25 09:00:48;;;;;;;14.38;2.05;;;;;;;;;;4902959;29;20144;-87
2022/02/25 09:03:15;;;;;;;14.40;1.95;;;;;;;;;;4900754;29;20056;-86
2022/02/25 09:05:42;;;;;;;15.75;2.10;;;;;;;;;;4902352;29;20107;-86
2022/02/25 09:08:09;;;;;;;9.60;1.73;;;;;;;;;;4895041;29;20751;-87
2022/02/25 09:10:36;;;;;;;14.27;2.53;;;;;;;;;;4880851;29;20568;-86
2022/02/25 09:13:03;;;;;;;14.85;2.03;;;;;;;;;;4884249;29;20108;-87
2022/02/25 09:15:30;;;;;;;14.60;2.20;;;;;;;;;;4878858;29;20056;-86
2022/02/25 09:17:58;;;;;;;10.43;2.35;;;;;;;;;;4870286;29;20053;-86
2022/02/25 09:20:26;;;;;;;13.07;2.00;;;;;;;;;;4881908;29;20132;-86
2022/02/25 09:22:53;;;;;;;15.43;2.03;;;;;;;;;;4879674;29;20636;-87
2022/02/25 09:25:24;;;;;;;13.27;2.10;;;;;;;;;;4877050;29;20523;-86
2022/02/25 09:27:50;;;;;;;20.00;2.33;;;;;;;;;;4882652;29;20080;-86
2022/02/25 09:30:17;;;;;;;14.88;2.63;;;;;;;;;;4886362;29;20049;-86
2022/02/25 09:32:45;;;;;;;13.57;1.95;;;;;;;;;;4877597;29;20116;-86
2022/02/25 09:35:11;;;;;;;13.98;2.17;;;;;;;;;;4873052;29;20060;-85
2022/02/25 09:37:38;;;;;;;13.18;2.13;;;;;;;;;;4871629;29;20597;-86
2022/02/25 09:40:09;;;;;;;18.02;2.20;;;;;;;;;;4871590;29;20070;-86
2022/02/25 09:42:38;;;;;;;20.15;2.47;;;;;;;;;;4886381;29;20507;-86
2022/02/25 09:45:07;;;;;;;11.93;1.80;;;;;;;;;;4875251;29;20056;-83
2022/02/25 09:47:35;;;;;;;10.25;2.13;;;;;;;;;;4876113;29;20049;-86
2022/02/25 09:50:08;;;;;;;13.85;2.22;;;;;;;;;;4886331;29;20084;-85
2022/02/25 09:52:36;;;;;;;17.42;2.50;;;;;;;;;;4881225;29;20073;-85
2022/02/25 09:55:21;;;;;;;19.52;2.38;;;;;;;;;;4891704;29;20053;-85
2022/02/25 09:57:48;;;;;;;14.50;2.17;;;;;;;;;;4870850;29;20471;-85
2022/02/25 10:00:16;;;;;;;15.18;2.97;;;;;;;;;;4873848;29;20116;-85
2022/02/25 10:02:45;;;;;;;13.07;2.25;;;;;;;;;;4881266;29;20056;-86
2022/02/25 10:05:15;;;;;;;14.00;2.30;;;;;;;;;;4876507;29;20131;-84
2022/02/25 10:07:42;;;;;;;10.70;1.85;;;;;;;;;;4874811;29;20048;-83
2022/02/25 10:10:10;;;;;;;15.02;2.38;;;;;;;;;;4874120;29;20084;-82
2022/02/25 10:12:37;;;;;;;22.87;3.63;;;;;;;;;;4875112;29;20072;-83
2022/02/25 10:15:04;;;;;;;14.52;2.40;;;;;;;;;;4873657;29;20077;-84
2022/02/25 10:17:31;;;;;;;12.25;2.13;;;;;;;;;;4881351;29;20088;-83
2022/02/25 10:20:03;;;;;;;14.73;2.38;;;;;;;;;;4893431;29;20104;-82
2022/02/25 10:22:50;;;;;;;22.80;3.00;;;;;;;;;;4893001;29;20371;-82
2022/02/25 10:25:21;;;;;;;18.50;2.47;;;;;;;;;;4892462;29;20132;-83
2022/02/25 10:27:51;;;;;;;13.73;2.10;;;;;;;;;;4893225;29;20505;-84
2022/02/25 10:30:19;;;;;;;16.10;2.92;;;;;;;;;;4892568;29;20048;-84
2022/02/25 10:32:55;;;;;;;16.48;2.55;;;;;;;;;;4894012;29;20052;-85
2022/02/25 10:35:34;;;;;;;23.25;2.38;;;;;;;;;;4892275;29;20440;-84
2022/02/25 10:38:11;;;;;;;15.63;2.15;;;;;;;;;;4892596;29;20131;-84
2022/02/25 10:40:42;;;;;;;13.52;2.08;;;;;;;;;;4889238;29;20070;-85
2022/02/25 10:43:10;;;;;;;16.30;2.97;;;;;;;;;;4891997;29;20048;-84
2022/02/25 10:45:40;;;;;;;16.27;2.40;;;;;;;;;;4881140;29;20056;-83
2022/02/25 10:48:12;;;;;;;20.23;2.20;;;;;;;;;;4892843;29;20060;-83
2022/02/25 10:51:05;;;;;;;17.98;2.40;;;;;;;;;;4893341;29;20048;-83
2022/02/25 10:53:35;;;;;;;26.50;2.33;;;;;;;;;;4891882;29;20056;-84
2022/02/25 10:56:08;;;;;;;16.58;2.40;;;;;;;;;;4892320;29;20104;-84
2022/02/25 10:58:55;;;;;;;20.42;2.60;;;;;;;;;;4893113;29;20076;-85
2022/02/25 11:01:32;;;;;;;15.65;3.17;;;;;;;;;;4896776;29;20052;-85
2022/02/25 11:04:00;;;;;;;28.03;2.73;;;;;;;;;;4903204;29;20144;-85
2022/02/25 11:06:30;;;;;;;21.40;3.15;;;;;;;;;;4906976;29;20048;-85
2022/02/25 11:08:58;;;;;;;20.58;2.78;;;;;;;;;;4892827;29;20095;-84
2022/02/25 11:11:25;;;;;;;27.48;3.72;;;;;;;;;;4891279;29;20104;-84
2022/02/25 11:13:52;;;;;;;19.77;2.45;;;;;;;;;;4887828;29;20105;-84
2022/02/25 11:16:20;;;;;;;17.92;2.42;;;;;;;;;;4891702;29;20075;-83
2022/02/25 11:19:08;;;;;;;17.60;2.50;;;;;;;;;;4849227;29;20448;-83
2022/02/25 11:21:35;;;;;;;15.55;2.45;;;;;;;;;;4862008;29;20054;-83
2022/02/25 11:24:02;;;;;;;23.77;3.20;;;;;;;;;;4855357;29;20113;-83
2022/02/25 11:26:29;;;;;;;21.40;2.47;;;;;;;;;;4851965;29;20090;-85
2022/02/25 11:29:00;;;;;;;17.27;2.85;;;;;;;;;;4850238;29;20080;-85
2022/02/25 11:31:32;;;;;;;19.08;2.72;;;;;;;;;;4858181;29;20056;-87
2022/02/25 11:34:00;;;;;;;24.70;3.20;;;;;;;;;;4864358;29;20052;-87
2022/02/25 11:36:59;;;;;;;25.27;3.08;;;;;;;;;;4866983;29;20080;-88
2022/02/25 11:39:30;;;;;;;29.77;3.13;;;;;;;;;;4815123;29;20155;-86
2022/02/25 11:42:02;;;;;;;21.75;3.22;;;;;;;;;;4800084;29;20054;-85
2022/02/25 11:44:31;;;;;;;22.92;3.05;;;;;;;;;;4811028;29;20058;-85
2022/02/25 11:46:58;;;;;;;17.30;2.88;;;;;;;;;;4814272;29;20084;-84
2022/02/25 11:49:27;;;;;;;14.80;2.53;;;;;;;;;;4814403;29;20483;-85
2022/02/25 11:52:00;;;;;;;21.02;2.90;;;;;;;;;;4816840;29;20247;-85
2022/02/25 11:54:40;;;;;;;18.00;2.08;;;;;;;;;;4814820;29;20054;-85
2022/02/25 11:57:11;;;;;;;22.08;3.42;;;;;;;;;;4813311;29;20191;-85
2022/02/25 11:59:38;;;;;;;19.73;4.05;;;;;;;;;;4815161;29;20106;-85
2022/02/25 12:02:06;;;;;;;18.25;2.65;;;;;;;;;;4815264;29;20093;-85
2022/02/25 12:04:36;;;;;;;15.70;2.83;;;;;;;;;;4817970;29;20058;-90
2022/02/25 12:07:05;;;;;;;14.52;2.15;;;;;;;;;;4816816;29;20564;-89
2022/02/25 12:09:48;;;;;;;12.63;2.40;;;;;;;;;;4817297;29;20113;-88
2022/02/25 12:12:22;;;;;;;13.90;2.65;;;;;;;;;;4816365;29;20054;-88
2022/02/25 12:14:58;;;;;;;18.05;2.13;;;;;;;;;;4832049;29;20053;-89
2022/02/25 12:17:35;;;;;;;16.10;2.80;;;;;;;;;;4865168;29;20060;-89
2022/02/25 12:20:09;;;;;;;20.55;2.50;;;;;;;;;;4900643;29;20431;-88
2022/02/25 12:22:53;;;;;;;12.82;2.42;;;;;;;;;;4878564;29;20040;-90
2022/02/25 12:25:40;;;;;;;21.48;2.35;;;;;;;;;;4886629;29;20060;-90
2022/02/25 12:28:10;;;;;;;15.75;2.05;;;;;;;;;;4893852;29;20107;-88
2022/02/25 12:30:45;;;;;;;17.52;2.17;;;;;;;;;;4892506;29;20052;-89
2022/02/25 12:33:32;;;;;;;15.70;2.25;;;;;;;;;;4891462;29;20056;-89
2022/02/25 12:36:22;;;;;;;17.77;2.38;;;;;;;;;;4900573;29;20055;-89
2022/02/25 12:38:49;;;;;;;17.23;2.35;;;;;;;;;;4888988;29;20201;-90
2022/02/25 12:41:18;;;;;;;8.43;1.90;;;;;;;;;;4879616;29;20052;-88
2022/02/25 12:43:47;;;;;;;13.93;2.45;;;;;;;;;;4899017;29;20479;-88
2022/02/25 12:46:15;;;;;;;18.00;3.03;;;;;;;;;;4901870;29;20048;-89
2022/02/25 12:48:42;;;;;;;18.47;2.73;;;;;;;;;;4892114;29;20052;-89
2022/02/25 12:51:08;;;;;;;19.42;2.58;;;;;;;;;;4894194;29;20083;-87
2022/02/25 12:53:53;;;;;;;14.27;2.75;;;;;;;;;;4892520;29;20080;-88
2022/02/25 12:56:22;;;;;;;20.58;2.85;;;;;;;;;;4895900;29;20454;-88
2022/02/25 12:58:51;;;;;;;20.77;2.80;;;;;;;;;;4901088;29;20577;-89
2022/02/25 13:01:22;;;;;;;;;;;;;;;;;;4883600;29;20052;-88
2022/02/25 13:04:08;;;;;;;17.58;2.35;;;;;;;;;;4885530;29;20326;-87
2022/02/25 13:06:39;;;;;;;18.95;2.47;;;;;;;;;;4890093;29;20059;-89
2022/02/25 13:09:20;;;;;;;11.30;1.83;;;;;;;;;;4898535;29;20053;-89
2022/02/25 13:11:53;;;;;;;13.00;2.30;;;;;;;;;;4903694;29;20060;-89
2022/02/25 13:14:32;;;;;;;15.48;1.80;;;;;;;;;;4890166;29;20051;-89
2022/02/25 13:17:07;;;;;;;;;;;;;;;;;;4898153;29;20535;-89
2022/02/25 13:19:41;;;;;;;12.45;2.05;;;;;;;;;;4905006;29;19923;-90
2022/02/25 13:22:19;;;;;;;15.15;2.20;;;;;;;;;;4896874;29;20048;-89
2022/02/25 13:25:22;;;;;;;16.30;2.78;;;;;;;;;;4897100;29;20601;-89
2022/02/25 13:27:55;;;;;;;14.43;2.20;;;;;;;;;;4906998;29;20502;-90
2022/02/25 13:30:22;;;;;;;13.02;2.75;;;;;;;;;;4896329;29;20289;-89
2022/02/25 13:32:59;;;;;;;9.50;2.08;;;;;;;;;;4904565;29;20084;-90
2022/02/25 13:35:31;;;;;;;16.65;2.30;;;;;;;;;;4893806;29;20056;-90
2022/02/25 13:38:02;;;;;;;16.88;2.45;;;;;;;;;;4896555;29;20596;-89
2022/02/25 13:40:35;;;;;;;15.02;2.00;;;;;;;;;;4899985;29;20079;-89
2022/02/25 13:43:27;;;;;;;17.15;2.50;;;;;;;;;;4904155;29;20053;-89
2022/02/25 13:45:58;;;;;;;18.38;2.90;;;;;;;;;;4896130;29;20131;-89
2022/02/25 13:54:20;;;;;;;;;;;;;;;;;;4905856;29;20052;-88
2022/02/25 13:56:49;;;;;;;15.63;2.55;;;;;;;;;;4911263;29;20361;-89
2022/02/25 13:59:25;;;;;;;15.52;2.00;;;;;;;;;;4897171;29;20053;-90
2022/02/25 14:02:14;;;;;;;15.05;2.40;;;;;;;;;;4898404;29;20072;-89
2022/02/25 14:04:49;;;;;;;12.98;1.85;;;;;;;;;;4900426;29;20049;-90
2022/02/25 14:07:16;;;;;;;16.35;2.80;;;;;;;;;;4898031;29;20107;-89
2022/02/25 14:09:48;;;;;;;18.13;2.03;;;;;;;;;;4878464;29;20056;-89
2022/02/25 14:12:18;;;;;;;12.93;2.03;;;;;;;;;;4885062;29;20061;-91
2022/02/25 14:14:51;;;;;;;19.33;2.28;;;;;;;;;;4897350;29;20132;-91
2022/02/25 14:17:26;;;;;;;21.30;2.78;;;;;;;;;;4881656;29;20532;-90
2022/02/25 14:20:03;;;;;;;11.43;2.40;;;;;;;;;;4880752;29;20564;-90
2022/02/25 14:22:53;;;;;;;14.73;2.28;;;;;;;;;;4897121;29;20052;-93
2022/02/25 14:25:22;;;;;;;13.43;2.33;;;;;;;;;;4902899;29;20049;-92
2022/02/25 14:28:06;;;;;;;18.30;3.42;;;;;;;;;;4878260;29;20628;-88
2022/02/25 14:30:42;;;;;;;9.93;2.40;;;;;;;;;;4892253;29;20068;-87
2022/02/25 14:33:11;;;;;;;11.68;2.40;;;;;;;;;;4876350;29;20104;-86
2022/02/25 14:35:40;;;;;;;14.15;2.40;;;;;;;;;;4893275;29;20076;-88
2022/02/25 14:38:07;;;;;;;14.80;2.65;;;;;;;;;;4895773;29;20475;-88
2022/02/25 14:40:35;;;;;;;16.25;2.38;;;;;;;;;;4885358;29;20097;-87
2022/02/25 14:43:02;;;;;;;12.60;3.00;;;;;;;;;;4899377;29;20591;-88
2022/02/25 14:45:30;;;;;;;16.80;2.45;;;;;;;;;;4893194;29;20052;-87
2022/02/25 14:47:58;;;;;;;22.90;2.85;;;;;;;;;;4894165;29;20128;-88
2022/02/25 14:50:26;;;;;;;12.82;2.70;;;;;;;;;;4904489;29;20104;-86
2022/02/25 14:52:55;;;;;;;16.10;2.65;;;;;;;;;;4897761;29;20147;-87
2022/02/25 14:55:22;;;;;;;19.58;2.47;;;;;;;;;;4897676;29;20056;-88
2022/02/25 14:57:52;;;;;;;21.13;3.10;;;;;;;;;;4884076;29;20104;-88
2022/02/25 15:00:21;;;;;;;20.08;2.50;;;;;;;;;;4902155;29;20056;-89
2022/02/25 15:02:47;;;;;;;22.98;2.78;;;;;;;;;;4894454;29;20127;-89
2022/02/25 15:05:15;;;;;;;17.27;2.50;;;;;;;;;;4875508;29;20371;-86
2022/02/25 15:07:45;;;;;;;15.38;2.30;;;;;;;;;;4898153;29;20060;-85
2022/02/25 15:10:12;;;;;;;16.83;2.58;;;;;;;;;;4894162;29;20052;-86
2022/02/25 15:12:39;;;;;;;17.63;2.65;;;;;;;;;;4906191;29;20056;-87
2022/02/25 15:15:08;;;;;;;18.52;3.17;;;;;;;;;;4909797;29;20417;-87
2022/02/25 15:17:34;;;;;;;15.60;2.72;;;;;;;;;;4877394;29;20561;-89
2022/02/25 15:20:02;;;;;;;16.20;2.08;;;;;;;;;;4902643;29;20064;-86
2022/02/25 15:22:29;;;;;;;20.67;2.83;;;;;;;;;;4905893;29;20112;-87
2022/02/25 15:24:56;;;;;;;20.65;3.05;;;;;;;;;;4904228;29;20320;-86
2022/02/25 15:27:22;;;;;;;15.98;1.90;;;;;;;;;;4894140;29;20048;-85
2022/02/25 15:29:49;;;;;;;16.15;2.40;;;;;;;;;;4891981;29;20160;-87
2022/02/25 15:32:16;;;;;;;18.05;2.85;;;;;;;;;;4891218;29;20084;-87
2022/02/25 15:34:43;;;;;;;13.77;1.98;;;;;;;;;;4897660;29;20139;-86
2022/02/25 15:37:13;;;;;;;14.00;3.17;;;;;;;;;;4892036;29;20465;-86
2022/02/25 15:39:40;;;;;;;20.63;2.88;;;;;;;;;;4892294;29;20422;-87
2022/02/25 15:42:07;;;;;;;16.13;2.22;;;;;;;;;;4902350;29;20071;-86
2022/02/25 15:44:34;;;;;;;19.13;4.10;;;;;;;;;;4909578;29;20561;-86
2022/02/25 15:47:04;;;;;;;17.08;2.60;;;;;;;;;;4883476;29;20633;-87
2022/02/25 15:49:31;;;;;;;18.27;2.63;;;;;;;;;;4898688;29;20124;-86
2022/02/25 15:51:58;;;;;;;18.08;2.63;;;;;;;;;;4873299;29;20056;-86
2022/02/25 15:54:24;;;;;;;15.05;2.33;;;;;;;;;;4905746;29;20080;-87
2022/02/25 15:56:52;;;;;;;18.55;2.38;;;;;;;;;;4892267;29;20076;-86
2022/02/25 15:59:18;;;;;;;12.85;2.35;;;;;;;;;;4901329;29;20048;-86
2022/02/25 16:01:45;;;;;;;12.18;1.92;;;;;;;;;;4902112;29;20116;-88
2022/02/25 16:04:12;;;;;;;16.58;2.55;;;;;;;;;;4904115;29;20056;-85
2022/02/25 16:06:39;;;;;;;17.58;2.20;;;;;;;;;;4892378;29;20060;-88
2022/02/25 16:09:06;;;;;;;17.05;2.88;;;;;;;;;;4891777;29;20056;-87
2022/02/25 16:11:32;;;;;;;11.32;2.20;;;;;;;;;;4875144;29;20052;-87
2022/02/25 16:14:00;;;;;;;20.05;2.53;;;;;;;;;;4892369;29;20080;-85
2022/02/25 16:16:32;;;;;;;18.15;2.75;;;;;;;;;;4891217;29;20049;-86
2022/02/25 16:18:59;;;;;;;14.85;2.30;;;;;;;;;;4896876;29;20537;-88
2022/02/25 16:21:26;;;;;;;16.15;2.30;;;;;;;;;;4888755;29;20044;-88
2022/02/25 16:24:13;;;;;;;19.42;2.55;;;;;;;;;;4905291;29;20060;-88
2022/02/25 16:26:40;;;;;;;16.35;2.22;;;;;;;;;;4892171;29;20044;-89
2022/02/25 16:29:06;;;;;;;19.58;2.47;;;;;;;;;;4884567;29;20052;-90
2022/02/25 16:31:35;;;;;;;16.75;2.58;;;;;;;;;;4889469;29;20551;-88
2022/02/25 16:34:02;;;;;;;16.15;2.25;;;;;;;;;;4892678;29;20048;-88
2022/02/25 16:36:28;;;;;;;17.63;2.10;;;;;;;;;;4892858;29;20045;-90
2022/02/25 16:38:55;;;;;;;17.52;3.08;;;;;;;;;;4899145;29;20049;-89
2022/02/25 16:41:21;;;;;;;22.73;3.60;;;;;;;;;;4878669;29;20535;-90
2022/02/25 16:43:48;;;;;;;16.00;2.58;;;;;;;;;;4897215;29;20120;-90
2022/02/25 16:46:15;;;;;;;13.23;2.08;;;;;;;;;;4888291;29;20064;-89
2022/02/25 16:48:42;;;;;;;13.45;1.98;;;;;;;;;;4875888;29;20064;-89
2022/02/25 16:51:09;;;;;;;22.73;2.83;;;;;;;;;;4893967;29;20057;-89
2022/02/25 16:53:35;;;;;;;20.05;2.83;;;;;;;;;;4898992;29;20491;-90
2022/02/25 16:56:03;;;;;;;14.10;2.72;;;;;;;;;;4898454;29;20119;-90
2022/02/25 16:58:32;;;;;;;18.80;2.40;;;;;;;;;;4882786;29;20072;-88
2022/02/25 17:00:58;;;;;;;19.85;3.00;;;;;;;;;;4877935;29;20056;-88
2022/02/25 17:03:26;;;;;;;15.02;2.45;;;;;;;;;;4892911;29;20044;-88
2022/02/25 17:05:53;;;;;;;19.42;2.72;;;;;;;;;;4892340;29;20062;-88
2022/02/25 17:08:19;;;;;;;17.25;3.35;;;;;;;;;;4876686;29;20517;-88
2022/02/25 17:10:46;;;;;;;21.25;3.35;;;;;;;;;;4890947;29;20532;-87
2022/02/25 17:13:13;;;;;;;15.68;4.50;;;;;;;;;;4879511;29;20056;-88
2022/02/25 17:15:40;;;;;;;21.48;5.45;;;;;;;;;;4892712;29;20055;-86
2022/02/25 17:18:07;;;;;;;24.67;5.55;;;;;;;;;;4891375;29;20538;-89
2022/02/25 17:20:34;;;;;;;22.45;5.35;;;;;;;;;;4895580;29;20109;-87
2022/02/25 17:23:00;;;;;;;20.75;5.47;;;;;;;;;;4892937;29;20052;-87
2022/02/25 17:25:27;;;;;;;21.92;5.40;;;;;;;;;;4891133;29;20097;-87
2022/02/25 17:27:54;;;;;;;22.25;4.82;;;;;;;;;;4892838;29;20084;-86
2022/02/25 17:30:21;;;;;;;18.73;5.20;;;;;;;;;;4892928;29;20120;-87
2022/02/25 17:32:48;;;;;;;17.88;4.20;;;;;;;;;;4899687;29;20109;-89
2022/02/25 17:35:15;;;;;;;20.80;3.80;;;;;;;;;;4898009;29;20097;-88
2022/02/25 17:37:41;;;;;;;17.30;3.45;;;;;;;;;;4900940;29;20057;-89
2022/02/25 17:40:12;;;;;;;19.42;3.60;;;;;;;;;;4893298;29;20040;-87
2022/02/25 17:42:41;;;;;;;27.98;4.93;;;;;;;;;;4895547;29;20060;-89
2022/02/25 17:45:08;;;;;;;26.88;6.47;;;;;;;;;;4897289;29;20087;-88
2022/02/25 17:47:39;;;;;;;25.33;5.50;;;;;;;;;;4893481;29;20080;-92
2022/02/25 17:50:07;;;;;;;20.23;4.68;;;;;;;;;;4896783;29;20056;-88
2022/02/25 17:52:34;;;;;;;14.93;3.40;;;;;;;;;;4892137;29;20097;-89
2022/02/25 17:55:01;;;;;;;21.10;4.10;;;;;;;;;;4891211;29;20053;-90
2022/02/25 17:57:28;;;;;;;20.27;3.53;;;;;;;;;;4892181;29;20052;-90
2022/02/25 17:59:56;;;;;;;25.05;3.42;;;;;;;;;;4895735;29;20081;-90
2022/02/25 18:02:24;;;;;;;20.23;4.45;;;;;;;;;;4888265;29;20105;-89
2022/02/25 18:04:54;;;;;;;29.63;4.30;;;;;;;;;;4894227;29;20407;-89
2022/02/25 18:07:21;;;;;;;21.27;3.70;;;;;;;;;;4881438;29;20517;-89
2022/02/25 18:09:47;;;;;;;22.65;3.45;;;;;;;;;;4892952;29;20076;-90
2022/02/25 18:12:14;;;;;;;22.92;3.42;;;;;;;;;;4896141;29;20052;-89
2022/02/25 18:14:41;;;;;;;24.48;3.83;;;;;;;;;;4895588;29;20052;-88
2022/02/25 18:17:08;;;;;;;24.35;3.55;;;;;;;;;;4897470;29;20079;-90
2022/02/25 18:19:35;;;;;;;19.17;3.03;;;;;;;;;;4901603;29;20056;-89
2022/02/25 18:22:03;;;;;;;22.40;5.95;;;;;;;;;;4905821;29;20068;-89
2022/02/25 18:24:30;;;;;;;22.05;4.97;;;;;;;;;;4907773;29;20104;-91
2022/02/25 18:27:02;;;;;;;19.77;3.47;;;;;;;;;;4905333;29;20056;-92
2022/02/25 18:29:29;;;;;;;21.23;4.10;;;;;;;;;;4903950;29;20067;-91
2022/02/25 18:31:55;;;;;;;28.73;4.10;;;;;;;;;;4887084;29;20379;-92
2022/02/25 18:34:22;;;;;;;26.77;4.40;;;;;;;;;;4898040;29;20053;-91
2022/02/25 18:36:49;;;;;;;23.17;3.47;;;;;;;;;;4908532;29;20060;-90
2022/02/25 18:39:16;;;;;;;31.13;5.32;;;;;;;;;;4883204;29;20529;-91
2022/02/25 18:41:45;;;;;;;;;;;;;;;;;;4905701;29;20106;-91
2022/02/25 18:44:12;;;;;;;19.67;4.70;;;;;;;;;;4884055;29;19980;-90
2022/02/25 18:46:39;;;;;;;18.85;4.03;;;;;;;;;;4895140;29;20055;-90
2022/02/25 18:49:06;;;;;;;25.38;4.18;;;;;;;;;;4905799;29;20044;-89
2022/02/25 18:51:40;;;;;;;29.02;4.00;;;;;;;;;;4909511;29;20116;-92
2022/02/25 18:54:12;;;;;;;26.02;4.45;;;;;;;;;;4897882;29;20049;-93
2022/02/25 18:56:39;;;;;;;21.48;4.05;;;;;;;;;;4895180;29;20100;-91
2022/02/25 18:59:09;;;;;;;28.92;5.70;;;;;;;;;;4897800;29;20056;-94
2022/02/25 19:01:36;;;;;;;18.00;3.50;;;;;;;;;;4900980;29;20049;-94
2022/02/25 19:04:04;;;;;;;24.63;4.30;;;;;;;;;;4896129;29;20051;-94
2022/02/25 19:06:34;;;;;;;18.63;4.30;;;;;;;;;;4891069;29;20080;-94
2022/02/25 19:09:00;;;;;;;20.85;3.90;;;;;;;;;;4882071;29;20068;-93
2022/02/25 19:11:27;;;;;;;17.80;3.83;;;;;;;;;;4896341;29;20052;-94
2022/02/25 19:13:54;;;;;;;22.80;4.70;;;;;;;;;;4899282;29;20080;-94
2022/02/25 19:16:20;;;;;;;22.45;4.32;;;;;;;;;;4881044;29;20108;-96
2022/02/25 19:18:47;;;;;;;21.08;4.82;;;;;;;;;;4864553;29;20060;-94
2022/02/25 19:21:14;;;;;;;29.58;5.38;;;;;;;;;;4906108;29;20540;-89
2022/02/25 19:23:40;;;;;;;29.88;5.30;;;;;;;;;;4877323;29;20056;-91
2022/02/25 19:26:09;;;;;;;27.77;4.88;;;;;;;;;;4904313;29;20058;-94
2022/02/25 19:28:39;;;;;;;29.52;4.60;;;;;;;;;;4895621;29;20063;-94
2022/02/25 19:31:09;;;;;;;32.45;5.43;;;;;;;;;;4907598;29;20056;-95
2022/02/25 19:33:38;;;;;;;27.52;4.75;;;;;;;;;;4909049;29;20045;-95
2022/02/25 19:36:05;;;;;;;30.02;5.07;;;;;;;;;;4905257;29;20458;-94
2022/02/25 19:38:32;;;;;;;22.80;3.58;;;;;;;;;;4901929;29;20053;-92
2022/02/25 19:40:59;;;;;;;20.05;3.85;;;;;;;;;;4874963;29;20049;-92
2022/02/25 19:43:26;;;;;;;30.83;5.40;;;;;;;;;;4883451;29;20073;-92
2022/02/25 19:45:52;;;;;;;26.75;4.80;;;;;;;;;;4894264;29;20095;-90
2022/02/25 19:48:21;;;;;;;;;;;;;;;;;;4879695;29;20068;-96
2022/02/25 19:50:48;;;;;;;29.27;4.90;;;;;;;;;;4898522;29;19983;-94
2022/02/25 19:53:16;;;;;;;38.03;4.72;;;;;;;;;;4894346;29;20478;-93
2022/02/25 19:55:43;;;;;;;27.85;5.15;;;;;;;;;;4895432;29;20057;-92
2022/02/25 19:58:10;;;;;;;24.58;4.47;;;;;;;;;;4904949;29;20902;-90
2022/02/25 20:00:37;;;;;;;21.27;3.83;;;;;;;;;;4892488;29;20497;-96
2022/02/25 20:03:04;;;;;;;19.15;3.65;;;;;;;;;;4891709;29;20056;-93
2022/02/25 20:05:31;;;;;;;28.38;3.88;;;;;;;;;;4877243;29;20048;-92
2022/02/25 20:07:58;;;;;;;27.92;4.10;;;;;;;;;;4878235;29;20155;-93
2022/02/25 20:10:30;;;;;;;22.23;4.30;;;;;;;;;;4892696;29;20087;-93
2022/02/25 20:12:57;;;;;;;20.83;5.90;;;;;;;;;;4893524;29;20100;-88
2022/02/25 20:15:24;;;;;;;26.83;6.10;;;;;;;;;;4907400;29;20085;-88
2022/02/25 20:17:51;;;;;;;22.67;5.60;;;;;;;;;;4876538;29;20060;-88
2022/02/25 20:20:18;;;;;;;18.75;5.28;;;;;;;;;;4883241;29;20052;-87
2022/02/25 20:22:45;;;;;;;26.02;4.45;;;;;;;;;;4899201;29;20518;-89
2022/02/25 20:25:12;;;;;;;29.30;4.03;;;;;;;;;;4875550;29;20474;-84
2022/02/25 20:27:39;;;;;;;24.65;4.00;;;;;;;;;;4873985;29;20446;-83
2022/02/25 20:30:08;;;;;;;38.65;6.10;;;;;;;;;;4882639;29;20040;-85
2022/02/25 20:32:35;;;;;;;28.02;6.53;;;;;;;;;;4892641;29;20049;-85
2022/02/25 20:35:04;;;;;;;31.13;6.78;;;;;;;;;;4892673;29;20108;-87
2022/02/25 20:37:31;;;;;;;;;;;;;;;;;;4877680;29;20131;-86
2022/02/25 20:39:58;;;;;;;31.60;10.07;;;;;;;;;;4883232;29;19934;-86
2022/02/25 20:42:25;;;;;;;32.33;7.30;;;;;;;;;;4889529;29;20076;-85
2022/02/25 20:44:52;;;;;;;34.08;6.63;;;;;;;;;;4893014;29;20467;-88
2022/02/25 20:47:19;;;;;;;36.03;8.25;;;;;;;;;;4897619;29;20082;-90
2022/02/25 20:49:45;;;;;;;28.77;7.57;;;;;;;;;;4891744;29;20057;-85
2022/02/25 20:52:12;;;;;;;24.27;4.80;;;;;;;;;;4894798;29;20470;-87
2022/02/25 20:54:41;;;;;;;23.73;4.13;;;;;;;;;;4875700;29;20056;-85
2022/02/25 20:57:08;;;;;;;30.85;5.88;;;;;;;;;;4892420;29;20060;-86
2022/02/25 20:59:34;;;;;;;16.15;4.93;;;;;;;;;;4895405;29;20112;-87
2022/02/25 21:02:02;;;;;;;16.17;4.15;;;;;;;;;;4895018;29;20609;-89
2022/02/25 21:04:32;;;;;;;26.45;4.65;;;;;;;;;;4876196;29;20048;-87
2022/02/25 21:06:58;;;;;;;23.10;5.43;;;;;;;;;;4872793;29;20048;-87
2022/02/25 21:09:25;;;;;;;27.92;4.97;;;;;;;;;;4893024;29;20108;-89